createdAt,value
2017-11-18T00:02:14.800Z,4.40
2017-11-18T00:04:42.413Z,4.40
2017-11-18T00:07:09.992Z,4.40
2017-11-18T00:09:37.584Z,4.40
2017-11-18T00:12:05.948Z,4.40
2017-11-18T00:14:33.531Z,4.40
2017-11-18T00:17:01.128Z,4.40
2017-11-18T00:19:28.767Z,4.40
2017-11-18T00:21:57.116Z,4.30
2017-11-18T00:24:24.700Z,4.30
2017-11-18T00:26:53.767Z,4.10
2017-11-18T00:29:21.324Z,4.10
2017-11-18T00:31:48.936Z,4.10
2017-11-18T00:34:16.505Z,4.00
2017-11-18T00:36:44.132Z,4.00
2017-11-18T00:39:12.468Z,4.00
2017-11-18T00:41:40.083Z,4.00
2017-11-18T00:44:08.424Z,4.00
2017-11-18T00:46:36.007Z,4.00
2017-11-18T00:49:03.574Z,4.00
2017-11-18T00:51:31.928Z,3.80
2017-11-18T00:53:59.484Z,3.80
2017-11-18T00:56:27.067Z,3.80
2017-11-18T00:58:55.412Z,3.60
2017-11-18T01:01:22.991Z,3.60
2017-11-18T01:03:50.570Z,3.60
2017-11-18T01:19:18.180Z,3.50
2017-11-18T01:21:45.740Z,3.20
2017-11-18T01:24:13.290Z,3.20
2017-11-18T01:26:40.887Z,3.20
2017-11-18T01:29:08.446Z,3.30
2017-11-18T01:31:36.015Z,3.30
2017-11-18T01:34:03.602Z,3.30
2017-11-18T01:36:31.944Z,3.30
2017-11-18T01:39:00.234Z,3.30
2017-11-18T01:41:27.839Z,3.30
2017-11-18T01:43:55.411Z,3.30
2017-11-18T01:46:22.999Z,3.20
2017-11-18T01:48:50.579Z,3.20
2017-11-18T01:51:18.151Z,3.10
2017-11-18T01:53:46.540Z,3.00
2017-11-18T01:56:14.858Z,3.00
2017-11-18T01:58:42.460Z,3.00
2017-11-18T02:01:10.038Z,2.90
2017-11-18T02:03:38.461Z,2.90
2017-11-18T02:06:06.032Z,2.90
2017-11-18T02:08:33.593Z,2.90
2017-11-18T02:11:01.173Z,2.90
2017-11-18T02:13:28.735Z,2.80
2017-11-18T02:15:56.295Z,2.80
2017-11-18T02:18:23.899Z,2.80
2017-11-18T02:20:51.929Z,2.80
2017-11-18T02:23:19.507Z,2.80
2017-11-18T02:25:47.069Z,2.80
2017-11-18T02:28:14.622Z,2.80
2017-11-18T02:30:42.357Z,2.70
2017-11-18T02:33:09.898Z,2.70
2017-11-18T02:35:37.466Z,2.70
2017-11-18T02:38:05.012Z,2.70
2017-11-18T02:40:32.589Z,2.70
2017-11-18T02:43:00.134Z,2.70
2017-11-18T02:45:27.733Z,2.70
2017-11-18T02:47:55.300Z,2.80
2017-11-18T02:50:22.852Z,2.70
2017-11-18T02:52:50.432Z,2.80
2017-11-18T02:55:17.982Z,2.80
2017-11-18T02:57:45.559Z,2.80
2017-11-18T03:00:13.901Z,2.90
2017-11-18T03:02:41.513Z,2.80
2017-11-18T03:05:09.875Z,2.90
2017-11-18T03:07:37.506Z,2.90
2017-11-18T03:10:05.083Z,2.90
2017-11-18T03:12:32.770Z,2.90
2017-11-18T03:15:01.071Z,3.00
2017-11-18T03:17:28.619Z,3.00
2017-11-18T03:19:56.212Z,3.10
2017-11-18T03:22:23.840Z,3.10
2017-11-18T03:24:51.443Z,3.20
2017-11-18T03:27:19.016Z,3.30
2017-11-18T03:29:46.617Z,3.40
2017-11-18T03:32:14.946Z,3.50
2017-11-18T03:34:42.568Z,3.50
2017-11-18T03:37:11.177Z,3.50
2017-11-18T03:39:38.730Z,3.50
2017-11-18T03:42:06.359Z,3.60
2017-11-18T03:44:33.954Z,3.60
2017-11-18T03:47:01.530Z,3.70
2017-11-18T03:49:29.096Z,3.80
2017-11-18T03:51:56.692Z,3.80
2017-11-18T03:54:24.263Z,3.90
2017-11-18T03:56:52.603Z,4.00
2017-11-18T03:59:20.228Z,4.00
2017-11-18T04:01:48.405Z,4.10
2017-11-18T04:04:16.013Z,4.10
2017-11-18T04:06:43.592Z,4.10
2017-11-18T04:09:11.167Z,4.20
2017-11-18T04:11:39.499Z,4.20
2017-11-18T04:14:07.081Z,4.20
2017-11-18T04:16:34.639Z,4.30
2017-11-18T04:19:02.217Z,4.30
2017-11-18T04:21:30.558Z,4.40
2017-11-18T04:23:58.147Z,4.30
2017-11-18T04:26:25.716Z,4.40
2017-11-18T04:28:53.310Z,4.40
2017-11-18T04:31:21.207Z,4.50
2017-11-18T04:33:48.771Z,4.50
2017-11-18T04:36:16.432Z,4.50
2017-11-18T04:38:44.000Z,4.60
2017-11-18T04:41:11.548Z,4.60
2017-11-18T04:43:39.143Z,4.60
2017-11-18T04:46:06.728Z,4.60
2017-11-18T04:48:35.070Z,4.70
2017-11-18T04:51:02.658Z,4.70
2017-11-18T04:53:31.020Z,4.70
2017-11-18T04:55:58.672Z,4.70
2017-11-18T04:58:26.254Z,4.70
2017-11-18T05:00:53.808Z,4.70
2017-11-18T05:03:21.403Z,4.80
2017-11-18T05:05:48.968Z,4.80
2017-11-18T05:08:16.769Z,4.80
2017-11-18T05:10:44.314Z,4.90
2017-11-18T05:13:11.879Z,4.90
2017-11-18T05:15:39.457Z,4.80
2017-11-18T05:18:07.017Z,4.90
2017-11-18T05:20:34.600Z,4.90
2017-11-18T05:23:02.176Z,4.90
2017-11-18T05:25:30.637Z,4.90
2017-11-18T05:27:58.214Z,4.90
2017-11-18T05:30:26.543Z,4.90
2017-11-18T05:32:54.300Z,4.90
2017-11-18T05:35:21.943Z,4.90
2017-11-18T05:37:49.502Z,4.90
2017-11-18T05:40:17.055Z,4.90
2017-11-18T05:42:45.406Z,4.90
2017-11-18T05:45:12.979Z,4.90
2017-11-18T05:47:41.310Z,4.90
2017-11-18T05:50:08.870Z,4.90
2017-11-18T05:52:36.490Z,4.90
2017-11-18T05:55:04.808Z,5.00
2017-11-18T05:57:32.399Z,5.00
2017-11-18T05:59:59.962Z,5.00
2017-11-18T06:02:27.601Z,5.00
2017-11-18T06:04:55.198Z,5.10
2017-11-18T06:07:22.951Z,5.10
2017-11-18T06:09:50.516Z,5.10
2017-11-18T06:12:18.093Z,5.10
2017-11-18T06:14:46.454Z,5.20
2017-11-18T06:17:14.012Z,5.10
2017-11-18T06:19:41.596Z,5.10
2017-11-18T06:22:09.919Z,5.10
2017-11-18T06:24:37.502Z,5.10
2017-11-18T06:27:05.047Z,5.10
2017-11-18T06:29:32.628Z,5.10
2017-11-18T06:32:00.199Z,5.10
2017-11-18T06:34:27.779Z,5.10
2017-11-18T06:36:57.088Z,5.10
2017-11-18T06:39:25.446Z,5.10
2017-11-18T06:41:53.074Z,5.10
2017-11-18T06:44:20.751Z,5.10
2017-11-18T06:46:48.346Z,5.10
2017-11-18T06:49:16.687Z,5.10
2017-11-18T06:51:44.254Z,5.10
2017-11-18T06:54:11.960Z,5.10
2017-11-18T06:56:40.447Z,5.10
2017-11-18T06:59:08.038Z,5.10
2017-11-18T07:01:35.698Z,5.20
2017-11-18T07:04:03.280Z,5.20
2017-11-18T07:06:30.885Z,5.20
2017-11-18T07:08:59.928Z,5.20
2017-11-18T07:11:27.515Z,5.20
2017-11-18T07:13:55.084Z,5.20
2017-11-18T07:16:22.754Z,5.20
2017-11-18T07:18:50.432Z,5.20
2017-11-18T07:21:18.774Z,5.20
2017-11-18T07:23:46.339Z,5.20
2017-11-18T07:26:13.919Z,5.20
2017-11-18T07:28:42.368Z,5.20
2017-11-18T07:31:09.928Z,5.20
2017-11-18T07:33:37.516Z,5.20
2017-11-18T07:36:05.904Z,5.20
2017-11-18T07:38:34.299Z,5.20
2017-11-18T07:41:01.961Z,5.20
2017-11-18T07:43:29.535Z,5.20
2017-11-18T07:45:57.149Z,5.20
2017-11-18T07:48:24.699Z,5.20
2017-11-18T07:50:52.300Z,5.20
2017-11-18T07:53:20.629Z,5.20
2017-11-18T07:55:48.220Z,5.20
2017-11-18T07:58:15.780Z,5.20
2017-11-18T08:00:43.475Z,5.20
2017-11-18T08:03:11.100Z,5.20
2017-11-18T08:05:38.651Z,5.20
2017-11-18T08:08:06.241Z,5.20
2017-11-18T08:10:34.577Z,5.30
2017-11-18T08:13:02.220Z,5.30
2017-11-18T08:15:29.790Z,5.30
2017-11-18T08:17:57.385Z,5.30
2017-11-18T08:20:24.960Z,5.40
2017-11-18T08:22:53.421Z,5.40
2017-11-18T08:25:21.015Z,5.40
2017-11-18T08:27:49.382Z,5.40
2017-11-18T08:30:17.713Z,5.50
2017-11-18T08:32:45.328Z,5.40
2017-11-18T08:35:13.641Z,5.40
2017-11-18T08:37:41.241Z,5.40
2017-11-18T08:40:08.844Z,5.50
2017-11-18T08:42:36.412Z,5.50
2017-11-18T08:45:03.981Z,5.50
2017-11-18T08:47:31.589Z,5.50
2017-11-18T08:49:59.168Z,5.60
2017-11-18T08:52:27.494Z,5.60
2017-11-18T08:54:55.147Z,5.60
2017-11-18T08:57:23.492Z,5.70
2017-11-18T08:59:51.858Z,5.70
2017-11-18T09:02:20.227Z,5.70
2017-11-18T09:04:47.821Z,5.70
2017-11-18T09:07:16.369Z,5.70
2017-11-18T09:09:43.976Z,5.70
2017-11-18T09:12:11.567Z,5.80
2017-11-18T09:14:39.145Z,5.80
2017-11-18T09:17:06.725Z,5.70
2017-11-18T09:19:34.307Z,5.70
2017-11-18T09:22:02.641Z,5.80
2017-11-18T09:24:30.219Z,5.70
2017-11-18T09:26:57.820Z,5.70
2017-11-18T09:29:25.410Z,5.70
2017-11-18T09:31:53.790Z,5.80
2017-11-18T09:34:21.361Z,5.80
2017-11-18T09:36:48.929Z,5.80
2017-11-18T09:39:16.532Z,5.80
2017-11-18T09:41:44.858Z,5.80
2017-11-18T09:44:12.540Z,5.80
2017-11-18T09:46:40.087Z,5.80
2017-11-18T09:49:08.578Z,5.80
2017-11-18T09:51:36.246Z,5.80
2017-11-18T09:54:04.105Z,5.80
2017-11-18T09:56:31.656Z,5.80
2017-11-18T09:58:59.248Z,5.80
2017-11-18T10:01:26.826Z,5.90
2017-11-18T10:03:55.185Z,6.00
2017-11-18T10:06:22.866Z,5.90
2017-11-18T10:08:51.221Z,5.90
2017-11-18T10:11:18.875Z,5.90
2017-11-18T10:13:46.465Z,5.90
2017-11-18T10:16:14.831Z,5.80
2017-11-18T10:18:42.391Z,5.80
2017-11-18T10:21:10.028Z,5.80
2017-11-18T10:23:37.602Z,5.70
2017-11-18T10:26:05.199Z,5.70
2017-11-18T10:28:32.825Z,5.70
2017-11-18T10:31:00.442Z,5.70
2017-11-18T10:33:28.024Z,5.70
2017-11-18T10:35:55.604Z,5.70
2017-11-18T10:38:23.188Z,5.70
2017-11-18T10:40:50.747Z,5.70
2017-11-18T10:43:19.087Z,5.70
2017-11-18T10:45:46.664Z,5.60
2017-11-18T10:48:14.257Z,5.70
2017-11-18T10:50:42.635Z,5.80
2017-11-18T10:53:10.999Z,5.90
2017-11-18T10:55:38.574Z,5.90
2017-11-18T10:58:06.962Z,6.00
2017-11-18T11:00:35.305Z,6.00
2017-11-18T11:03:02.910Z,6.00
2017-11-18T11:05:31.260Z,6.10
2017-11-18T11:07:58.839Z,6.10
2017-11-18T11:10:27.184Z,6.10
2017-11-18T11:12:54.827Z,6.10
2017-11-18T11:15:22.448Z,6.10
2017-11-18T11:17:50.811Z,6.00
2017-11-18T11:20:18.384Z,6.00
2017-11-18T11:22:46.792Z,6.10
2017-11-18T11:25:14.379Z,6.10
2017-11-18T11:27:41.933Z,6.20
2017-11-18T11:30:09.494Z,6.30
2017-11-18T11:32:37.106Z,6.30
2017-11-18T11:35:05.508Z,6.30
2017-11-18T11:37:33.198Z,6.30
2017-11-18T11:40:00.783Z,6.40
2017-11-18T11:42:28.367Z,6.40
2017-11-18T11:44:56.729Z,6.40
2017-11-18T11:47:24.317Z,6.40
2017-11-18T11:49:52.679Z,6.30
2017-11-18T11:52:20.279Z,6.30
2017-11-18T11:54:47.864Z,6.40
2017-11-18T11:57:15.451Z,6.50
2017-11-18T11:59:43.035Z,6.50
2017-11-18T12:02:11.406Z,6.50
2017-11-18T12:04:39.018Z,6.60
2017-11-18T12:07:06.598Z,6.50
2017-11-18T12:09:34.190Z,6.50
2017-11-18T12:12:02.530Z,6.50
2017-11-18T12:14:30.115Z,6.50
2017-11-18T12:16:57.692Z,6.50
2017-11-18T12:19:26.384Z,6.70
2017-11-18T12:21:54.776Z,6.80
2017-11-18T12:24:23.124Z,6.70
2017-11-18T12:26:50.703Z,6.70
2017-11-18T12:29:19.028Z,6.70
2017-11-18T12:31:46.735Z,6.70
2017-11-18T12:34:14.325Z,6.70
2017-11-18T12:39:15.761Z,6.80
2017-11-18T12:41:43.357Z,6.80
2017-11-18T12:44:10.915Z,6.90
2017-11-18T12:46:38.492Z,6.90
2017-11-18T12:49:06.079Z,6.80
2017-11-18T12:51:33.690Z,6.70
2017-11-18T12:54:02.504Z,6.80
2017-11-18T12:56:30.096Z,6.80
2017-11-18T12:58:57.689Z,6.90
2017-11-18T13:01:32.313Z,6.90
2017-11-18T13:04:02.783Z,7.00
2017-11-18T13:06:33.595Z,7.10
2017-11-18T13:09:06.065Z,7.10
2017-11-18T13:11:33.717Z,7.20
2017-11-18T13:14:01.323Z,7.30
2017-11-18T13:16:28.922Z,7.20
2017-11-18T13:18:56.530Z,7.10
2017-11-18T13:21:24.108Z,7.10
2017-11-18T13:23:51.755Z,7.00
2017-11-18T13:26:19.347Z,7.00
2017-11-18T13:28:52.584Z,6.90
2017-11-18T13:31:21.143Z,6.90
2017-11-18T13:33:51.845Z,6.90
2017-11-18T13:36:19.551Z,6.90
2017-11-18T13:38:47.118Z,6.80
2017-11-18T13:41:14.695Z,6.80
2017-11-18T13:43:43.029Z,6.70
2017-11-18T13:46:10.702Z,6.70
2017-11-18T13:48:38.290Z,6.70
2017-11-18T13:51:06.671Z,6.60
2017-11-18T13:53:35.021Z,6.50
2017-11-18T13:56:02.744Z,6.50
2017-11-18T13:58:30.324Z,6.50
2017-11-18T14:00:57.937Z,6.30
2017-11-18T14:03:26.305Z,6.10
2017-11-18T14:05:53.903Z,6.10
2017-11-18T14:08:21.531Z,6.10
2017-11-18T14:10:49.124Z,6.10
2017-11-18T14:13:16.840Z,6.10
2017-11-18T14:15:44.639Z,6.10
2017-11-18T14:18:13.043Z,6.20
2017-11-18T14:20:40.692Z,6.20
2017-11-18T14:23:09.020Z,6.30
2017-11-18T14:25:36.610Z,6.20
2017-11-18T14:28:04.198Z,6.30
2017-11-18T14:30:31.795Z,6.80
2017-11-18T14:33:00.338Z,6.20
2017-11-18T14:35:27.936Z,6.20
2017-11-18T14:37:56.336Z,6.20
2017-11-18T14:40:23.877Z,6.20
2017-11-18T14:42:51.468Z,6.20
2017-11-18T14:45:19.105Z,6.20
2017-11-18T14:47:46.714Z,6.20
2017-11-18T14:50:15.078Z,6.20
2017-11-18T14:52:43.447Z,6.10
2017-11-18T14:55:11.198Z,6.00
2017-11-18T14:57:39.718Z,6.00
2017-11-18T15:00:08.085Z,5.70
2017-11-18T15:02:36.445Z,5.60
2017-11-18T15:05:04.016Z,5.60
2017-11-18T15:07:31.683Z,5.60
2017-11-18T15:09:59.249Z,5.60
2017-11-18T15:12:26.828Z,5.60
2017-11-18T15:14:58.355Z,5.60
2017-11-18T15:17:31.691Z,5.60
2017-11-18T15:20:04.881Z,5.60
2017-11-18T15:22:50.082Z,5.60
2017-11-18T15:25:23.262Z,5.60
2017-11-18T15:28:05.919Z,5.60
2017-11-18T15:30:53.170Z,5.60
2017-11-18T15:33:23.254Z,5.70
2017-11-18T15:36:07.646Z,5.70
2017-11-18T15:38:45.955Z,5.80
2017-11-18T15:41:14.295Z,5.80
2017-11-18T15:43:58.634Z,5.80
2017-11-18T15:46:31.852Z,5.80
2017-11-18T15:49:04.974Z,5.80
2017-11-18T15:51:36.090Z,5.80
2017-11-18T15:54:15.554Z,5.80
2017-11-18T15:56:52.470Z,5.60
2017-11-18T15:59:20.046Z,5.60
2017-11-18T16:01:52.028Z,5.30
2017-11-18T16:04:22.299Z,5.00
2017-11-18T16:09:57.277Z,4.30
2017-11-18T16:12:24.846Z,4.20
2017-11-18T16:14:52.456Z,4.10
2017-11-18T16:17:20.831Z,4.10
2017-11-18T16:19:49.252Z,4.20
2017-11-18T16:22:16.914Z,4.20
2017-11-18T16:24:44.500Z,4.20
2017-11-18T16:27:12.869Z,4.20
2017-11-18T16:29:40.474Z,4.20
2017-11-18T16:32:08.847Z,4.30
2017-11-18T16:34:36.443Z,4.30
2017-11-18T16:37:04.026Z,4.30
2017-11-18T16:39:31.656Z,4.30
2017-11-18T16:42:00.007Z,4.30
2017-11-18T16:44:27.564Z,4.30
2017-11-18T16:46:55.149Z,4.30
2017-11-18T16:49:23.466Z,4.30
2017-11-18T16:51:51.056Z,4.30
2017-11-18T16:54:18.619Z,4.30
2017-11-18T16:56:46.240Z,4.40
2017-11-18T16:59:13.878Z,4.40
2017-11-18T17:01:42.225Z,4.40
2017-11-18T17:04:09.932Z,4.40
2017-11-18T17:06:38.249Z,4.40
2017-11-18T17:09:05.833Z,4.40
2017-11-18T17:11:33.438Z,4.40
2017-11-18T17:14:01.097Z,4.40
2017-11-18T17:16:28.649Z,4.40
2017-11-18T17:18:57.028Z,4.40
2017-11-18T17:21:25.443Z,4.40
2017-11-18T17:23:53.092Z,4.40
2017-11-18T17:26:20.708Z,4.40
2017-11-18T17:28:48.299Z,4.40
2017-11-18T17:31:16.669Z,4.50
2017-11-18T17:33:45.046Z,4.40
2017-11-18T17:36:13.440Z,4.50
2017-11-18T17:38:41.157Z,4.50
2017-11-18T17:41:08.830Z,4.50
2017-11-18T17:43:36.497Z,4.50
2017-11-18T17:46:04.118Z,4.50
2017-11-18T17:48:32.514Z,4.50
2017-11-18T17:51:00.850Z,4.60
2017-11-18T17:53:28.469Z,4.50
2017-11-18T17:55:56.037Z,4.60
2017-11-18T17:58:23.634Z,4.60
2017-11-18T18:00:51.238Z,4.60
2017-11-18T18:03:18.847Z,4.60
2017-11-18T18:05:47.219Z,4.60
2017-11-18T18:08:15.590Z,4.70
2017-11-18T18:10:44.008Z,4.70
2017-11-18T18:13:11.591Z,4.70
2017-11-18T18:15:39.201Z,4.70
2017-11-18T18:18:08.317Z,4.70
2017-11-18T18:20:36.842Z,4.70
2017-11-18T18:23:04.439Z,4.70
2017-11-18T18:25:33.029Z,4.70
2017-11-18T18:28:01.416Z,4.70
2017-11-18T18:30:29.782Z,4.70
2017-11-18T18:32:58.191Z,4.70
2017-11-18T18:35:25.807Z,4.70
2017-11-18T18:37:54.230Z,4.80
2017-11-18T18:40:21.823Z,4.80
2017-11-18T18:42:50.193Z,4.70
2017-11-18T18:45:17.800Z,4.70
2017-11-18T18:47:45.482Z,4.70
2017-11-18T18:50:13.841Z,4.70
2017-11-18T18:52:41.784Z,4.70
2017-11-18T18:55:09.524Z,4.70
2017-11-18T18:57:37.152Z,4.70
2017-11-18T19:00:05.810Z,4.70
2017-11-18T19:02:33.476Z,4.70
2017-11-18T19:05:01.361Z,4.80
2017-11-18T19:07:29.714Z,4.80
2017-11-18T19:09:57.339Z,4.80
2017-11-18T19:12:24.933Z,4.80
2017-11-18T19:14:52.815Z,4.80
2017-11-18T19:17:20.433Z,4.90
2017-11-18T19:19:48.011Z,4.80
2017-11-18T19:22:15.715Z,4.90
2017-11-18T19:24:44.076Z,4.90
2017-11-18T19:27:11.705Z,4.90
2017-11-18T19:29:39.371Z,4.90
2017-11-18T19:32:06.999Z,4.90
2017-11-18T19:34:35.614Z,5.00
2017-11-18T19:37:03.260Z,5.00
2017-11-18T19:39:30.999Z,5.00
2017-11-18T19:41:59.340Z,5.00
2017-11-18T19:44:27.008Z,5.00
2017-11-18T19:46:54.659Z,5.00
2017-11-18T19:49:22.262Z,5.00
2017-11-18T19:51:49.840Z,5.00
2017-11-18T19:54:18.228Z,5.00
2017-11-18T19:56:45.823Z,5.00
2017-11-18T19:59:13.440Z,5.00
2017-11-18T20:01:41.867Z,5.00
2017-11-18T20:04:09.512Z,5.00
2017-11-18T20:06:37.271Z,5.00
2017-11-18T20:09:04.942Z,5.00
2017-11-18T20:11:32.621Z,5.00
2017-11-18T20:14:00.215Z,4.90
2017-11-18T20:16:27.834Z,4.80
2017-11-18T20:18:55.444Z,4.80
2017-11-18T20:21:23.862Z,4.70
2017-11-18T20:23:51.556Z,4.70
2017-11-18T20:26:19.222Z,4.70
2017-11-18T20:28:46.909Z,4.70
2017-11-18T20:31:15.346Z,4.70
2017-11-18T20:33:43.073Z,4.70
2017-11-18T20:36:11.428Z,4.60
2017-11-18T20:38:39.077Z,4.60
2017-11-18T20:41:07.162Z,4.70
2017-11-18T20:43:34.840Z,4.70
2017-11-18T20:46:03.211Z,4.70
2017-11-18T20:48:31.584Z,4.70
2017-11-18T20:50:59.666Z,4.70
2017-11-18T20:53:27.544Z,4.70
2017-11-18T20:55:55.944Z,4.70
2017-11-18T20:58:23.606Z,4.70
2017-11-18T21:00:51.613Z,4.70
2017-11-18T21:03:19.236Z,4.70
2017-11-18T21:05:47.124Z,4.80
2017-11-18T21:08:14.726Z,4.80
2017-11-18T21:10:42.321Z,4.80
2017-11-18T21:13:10.689Z,4.80
2017-11-18T21:15:39.161Z,4.80
2017-11-18T21:18:07.545Z,4.80
2017-11-18T21:20:35.978Z,4.80
2017-11-18T21:23:03.620Z,4.80
2017-11-18T21:25:31.278Z,4.80
2017-11-18T21:27:58.867Z,4.80
2017-11-18T21:30:26.580Z,4.90
2017-11-18T21:32:54.935Z,4.90
2017-11-18T21:35:22.611Z,4.80
2017-11-18T21:37:51.028Z,4.90
2017-11-18T21:40:19.285Z,4.90
2017-11-18T21:42:47.658Z,4.90
2017-11-18T21:45:16.049Z,4.90
2017-11-18T21:47:44.464Z,4.90
2017-11-18T21:50:12.052Z,4.90
2017-11-18T21:52:39.761Z,4.90
2017-11-18T21:55:07.396Z,4.90
2017-11-18T21:57:35.813Z,5.00
2017-11-18T22:00:03.433Z,5.00
2017-11-18T22:02:31.131Z,5.00
2017-11-18T22:04:59.641Z,5.00
2017-11-18T22:07:27.506Z,5.00
2017-11-18T22:09:55.269Z,5.00
2017-11-18T22:12:23.122Z,5.00
2017-11-18T22:14:50.838Z,5.00
2017-11-18T22:17:18.487Z,5.00
2017-11-18T22:19:46.144Z,5.10
2017-11-18T22:22:13.820Z,5.10
2017-11-18T22:24:41.502Z,5.10
2017-11-18T22:27:09.956Z,5.10
2017-11-18T22:29:37.669Z,5.10
2017-11-18T22:32:05.919Z,5.10
2017-11-18T22:34:33.600Z,5.10
2017-11-18T22:37:02.030Z,5.10
2017-11-18T22:39:29.725Z,5.10
2017-11-18T22:41:57.334Z,5.10
2017-11-18T22:44:24.948Z,5.10
2017-11-18T22:46:53.315Z,5.10
2017-11-18T22:49:24.649Z,5.00
2017-11-18T22:51:53.080Z,5.00
2017-11-18T22:54:20.742Z,5.00
2017-11-18T22:56:49.121Z,5.10
2017-11-18T22:59:16.801Z,5.10
2017-11-18T23:01:44.482Z,5.10
2017-11-18T23:04:12.123Z,5.10
2017-11-18T23:06:39.759Z,5.10
2017-11-18T23:09:08.224Z,5.10
2017-11-18T23:11:35.847Z,5.10
2017-11-18T23:14:03.443Z,5.10
2017-11-18T23:16:31.043Z,5.10
2017-11-18T23:18:58.687Z,5.10
2017-11-18T23:21:27.072Z,5.10
2017-11-18T23:23:54.673Z,5.10
2017-11-18T23:26:22.280Z,5.10
2017-11-18T23:28:49.872Z,5.10
2017-11-18T23:31:18.235Z,5.10
2017-11-18T23:33:46.605Z,5.10
2017-11-18T23:36:14.218Z,5.10
2017-11-18T23:38:41.802Z,5.10
2017-11-18T23:41:09.398Z,5.20
2017-11-18T23:43:36.990Z,5.20
2017-11-18T23:46:04.595Z,5.20
2017-11-18T23:48:32.173Z,5.20
2017-11-18T23:50:59.774Z,5.10
2017-11-18T23:53:27.368Z,5.10
2017-11-18T23:55:54.985Z,5.10
2017-11-18T23:58:22.583Z,5.10
